createdAt,value
2019-02-28T00:00:00.579Z,39.95
2019-02-28T00:02:29.642Z,40.35
2019-02-28T00:04:56.841Z,39.58
2019-02-28T00:07:24.042Z,40.45
2019-02-28T00:09:51.227Z,38.35
2019-02-28T00:12:18.424Z,37.60
2019-02-28T00:14:45.682Z,41.63
2019-02-28T00:17:12.874Z,40.43
2019-02-28T00:19:40.617Z,39.58
2019-02-28T00:22:07.836Z,41.40
2019-02-28T00:24:35.026Z,38.55
2019-02-28T00:27:02.207Z,40.17
2019-02-28T00:29:33.448Z,40.15
2019-02-28T00:31:58.307Z,39.48
2019-02-28T00:34:25.524Z,40.88
2019-02-28T00:36:53.451Z,39.73
2019-02-28T00:39:21.243Z,43.13
2019-02-28T00:41:48.433Z,40.52
2019-02-28T00:44:15.624Z,40.23
2019-02-28T00:46:45.047Z,41.35
2019-02-28T00:49:11.718Z,41.37
2019-02-28T00:51:38.898Z,41.50
2019-02-28T00:54:08.648Z,38.42
2019-02-28T00:56:34.989Z,38.55
2019-02-28T00:59:02.175Z,42.58
2019-02-28T01:01:29.374Z,39.53
2019-02-28T01:03:58.086Z,41.90
2019-02-28T01:06:25.468Z,41.00
2019-02-28T01:08:53.013Z,40.65
2019-02-28T01:11:21.561Z,42.60
2019-02-28T01:13:48.761Z,39.38
2019-02-28T01:16:19.084Z,40.25
2019-02-28T01:18:44.974Z,39.65
2019-02-28T01:21:12.157Z,39.75
2019-02-28T01:23:39.333Z,40.50
2019-02-28T01:26:06.519Z,41.15
2019-02-28T01:28:33.826Z,40.15
2019-02-28T01:31:01.007Z,41.02
2019-02-28T01:33:28.173Z,42.73
2019-02-28T01:35:55.363Z,41.73
2019-02-28T01:38:23.952Z,42.05
2019-02-28T01:40:51.466Z,40.85
2019-02-28T01:43:18.641Z,38.28
2019-02-28T01:45:45.833Z,40.98
2019-02-28T01:48:13.007Z,41.28
2019-02-28T01:50:40.199Z,41.80
2019-02-28T01:53:07.402Z,41.68
2019-02-28T01:55:34.648Z,41.18
2019-02-28T01:58:01.814Z,39.98
2019-02-28T02:00:29.058Z,42.15
2019-02-28T02:02:56.226Z,41.35
2019-02-28T02:05:23.422Z,44.00
2019-02-28T02:07:50.619Z,41.00
2019-02-28T02:10:21.214Z,41.80
2019-02-28T02:12:49.088Z,41.05
2019-02-28T02:15:17.034Z,41.80
2019-02-28T02:17:45.135Z,41.83
2019-02-28T02:20:13.937Z,43.20
2019-02-28T02:22:44.432Z,44.83
2019-02-28T02:25:10.207Z,42.45
2019-02-28T02:27:37.396Z,44.05
2019-02-28T02:30:13.619Z,41.88
2019-02-28T02:32:38.608Z,43.80
2019-02-28T02:35:08.127Z,42.43
2019-02-28T02:37:34.864Z,42.65
2019-02-28T02:40:02.248Z,42.65
2019-02-28T02:42:29.431Z,43.38
2019-02-28T02:44:56.613Z,43.50
2019-02-28T02:47:24.037Z,44.38
2019-02-28T02:49:56.472Z,41.65
2019-02-28T02:52:25.884Z,43.08
2019-02-28T02:54:52.091Z,46.98
2019-02-28T02:57:18.315Z,46.05
2019-02-28T02:59:45.476Z,44.45
2019-02-28T03:02:12.863Z,45.58
2019-02-28T03:04:40.800Z,46.08
2019-02-28T03:07:08.151Z,48.20
2019-02-28T03:09:35.338Z,47.55
2019-02-28T03:12:02.531Z,47.27
2019-02-28T03:14:29.722Z,47.85
2019-02-28T03:16:56.976Z,46.23
2019-02-28T03:19:24.170Z,44.98
2019-02-28T03:21:52.847Z,47.75
2019-02-28T03:24:20.242Z,49.23
2019-02-28T03:26:47.627Z,48.78
2019-02-28T03:29:14.912Z,49.90
2019-02-28T03:31:42.107Z,48.28
2019-02-28T03:34:12.746Z,48.38
2019-02-28T03:36:38.255Z,49.70
2019-02-28T03:39:06.127Z,47.25
2019-02-28T03:41:33.383Z,52.73
2019-02-28T03:44:00.579Z,49.20
2019-02-28T03:46:27.770Z,46.75
2019-02-28T03:48:54.981Z,49.88
2019-02-28T03:51:22.182Z,50.30
2019-02-28T03:53:55.591Z,47.75
2019-02-28T03:56:18.274Z,50.12
2019-02-28T03:58:45.515Z,48.02
2019-02-28T04:01:12.703Z,48.42
2019-02-28T04:03:40.219Z,49.00
2019-02-28T04:06:07.520Z,50.35
2019-02-28T04:08:34.790Z,48.87
2019-02-28T04:11:02.286Z,48.83
2019-02-28T04:13:29.476Z,46.98
2019-02-28T04:16:08.535Z,48.52
2019-02-28T04:18:25.606Z,48.28
2019-02-28T04:20:52.789Z,48.23
2019-02-28T04:23:20.052Z,47.20
2019-02-28T04:25:47.264Z,47.62
2019-02-28T04:28:18.644Z,48.15
2019-02-28T04:30:44.107Z,48.70
2019-02-28T04:33:11.451Z,48.90
2019-02-28T04:35:38.663Z,47.05
2019-02-28T04:38:05.840Z,48.35
2019-02-28T04:40:33.051Z,49.00
2019-02-28T04:43:00.241Z,48.13
2019-02-28T04:45:27.507Z,49.40
2019-02-28T04:47:54.686Z,50.58
2019-02-28T04:50:21.868Z,54.65
2019-02-28T04:52:49.059Z,52.08
2019-02-28T04:55:16.443Z,50.05
2019-02-28T04:57:43.643Z,53.80
2019-02-28T05:00:12.462Z,52.30
2019-02-28T05:02:39.840Z,52.93
2019-02-28T05:05:12.180Z,51.15
2019-02-28T05:07:36.497Z,52.53
2019-02-28T05:10:04.766Z,50.70
2019-02-28T05:12:31.963Z,48.83
2019-02-28T05:15:02.151Z,52.40
2019-02-28T05:17:28.049Z,54.35
2019-02-28T05:19:58.529Z,52.30
2019-02-28T05:22:27.573Z,53.28
2019-02-28T05:24:55.094Z,53.23
2019-02-28T05:27:24.324Z,54.25
2019-02-28T05:29:51.185Z,56.00
2019-02-28T05:32:18.379Z,53.52
2019-02-28T05:34:47.402Z,52.88
2019-02-28T05:37:14.470Z,53.95
2019-02-28T05:39:43.681Z,56.55
2019-02-28T05:42:10.579Z,54.10
2019-02-28T05:44:40.295Z,55.40
2019-02-28T05:47:06.690Z,53.65
2019-02-28T05:49:33.864Z,51.23
2019-02-28T05:52:01.049Z,55.92
2019-02-28T05:54:28.241Z,55.48
2019-02-28T05:56:55.410Z,54.30
2019-02-28T05:59:26.148Z,54.65
2019-02-28T06:01:51.641Z,54.90
2019-02-28T06:04:18.846Z,53.20
2019-02-28T06:06:46.033Z,52.45
2019-02-28T06:09:13.697Z,51.48
2019-02-28T06:11:42.087Z,52.27
2019-02-28T06:14:09.280Z,52.62
2019-02-28T06:16:36.512Z,51.95
2019-02-28T06:19:04.575Z,55.10
2019-02-28T06:21:32.846Z,54.48
2019-02-28T06:24:00.095Z,54.42
2019-02-28T06:26:27.286Z,51.83
2019-02-28T06:28:54.475Z,54.75
2019-02-28T06:31:21.676Z,54.58
2019-02-28T06:33:48.868Z,54.88
2019-02-28T06:36:16.058Z,54.95
2019-02-28T06:38:43.243Z,54.38
2019-02-28T06:41:10.438Z,54.58
2019-02-28T06:43:37.617Z,53.58
2019-02-28T06:46:04.818Z,53.63
2019-02-28T06:48:32.074Z,56.98
2019-02-28T06:50:59.265Z,55.30
2019-02-28T06:53:30.752Z,53.85
2019-02-28T06:55:56.457Z,53.40
2019-02-28T06:58:23.911Z,51.73
2019-02-28T07:00:51.107Z,51.00
2019-02-28T07:03:18.322Z,50.40
2019-02-28T07:05:45.495Z,50.63
2019-02-28T07:08:12.671Z,51.85
2019-02-28T07:10:41.563Z,49.58
2019-02-28T07:13:08.766Z,52.75
2019-02-28T07:15:36.042Z,50.28
2019-02-28T07:18:03.369Z,49.88
2019-02-28T07:20:44.525Z,51.18
2019-02-28T07:23:11.326Z,49.65
2019-02-28T07:25:38.516Z,49.90
2019-02-28T07:28:05.787Z,49.20
2019-02-28T07:30:32.997Z,53.17
2019-02-28T07:33:00.188Z,53.70
2019-02-28T07:35:32.686Z,55.55
2019-02-28T07:37:56.383Z,54.27
2019-02-28T07:40:23.846Z,58.70
2019-02-28T07:42:51.087Z,55.00
2019-02-28T07:45:18.271Z,61.08
2019-02-28T07:47:45.499Z,65.75
2019-02-28T07:50:16.254Z,61.33
2019-02-28T07:55:50.375Z,59.23
2019-02-28T07:58:17.708Z,64.00
2019-02-28T08:00:44.946Z,65.55
2019-02-28T08:03:12.222Z,66.80
2019-02-28T08:05:39.509Z,64.45
2019-02-28T08:08:06.904Z,66.60
2019-02-28T08:10:34.457Z,68.22
2019-02-28T08:13:03.034Z,66.90
2019-02-28T08:15:30.703Z,66.12
2019-02-28T08:17:57.888Z,65.95
2019-02-28T08:20:25.125Z,67.53
2019-02-28T08:22:52.451Z,68.85
2019-02-28T08:25:19.640Z,67.87
2019-02-28T08:27:46.894Z,63.15
2019-02-28T08:30:19.608Z,64.03
2019-02-28T08:32:47.800Z,67.47
2019-02-28T08:35:15.565Z,68.85
2019-02-28T08:37:42.895Z,72.82
2019-02-28T08:40:12.606Z,72.30
2019-02-28T08:42:40.678Z,73.60
2019-02-28T08:45:10.843Z,71.65
2019-02-28T08:47:38.117Z,72.47
2019-02-28T08:50:07.019Z,72.60
2019-02-28T08:52:34.210Z,75.17
2019-02-28T08:55:03.068Z,75.15
2019-02-28T08:57:30.337Z,77.92
2019-02-28T08:59:57.527Z,72.03
2019-02-28T09:02:24.734Z,73.02
2019-02-28T09:04:51.938Z,76.22
2019-02-28T09:07:19.144Z,71.97
2019-02-28T09:09:46.334Z,81.63
2019-02-28T09:12:13.605Z,78.12
2019-02-28T09:14:40.789Z,74.72
2019-02-28T09:17:08.057Z,74.67
2019-02-28T09:19:36.053Z,76.22
2019-02-28T09:22:04.366Z,69.55
2019-02-28T09:24:31.854Z,73.35
2019-02-28T09:27:01.373Z,74.32
2019-02-28T09:29:27.978Z,81.57
2019-02-28T09:31:56.211Z,71.37
2019-02-28T09:34:23.670Z,76.92
2019-02-28T09:36:55.230Z,75.60
2019-02-28T09:39:20.294Z,74.20
2019-02-28T09:41:47.681Z,78.17
2019-02-28T09:44:14.866Z,75.00
2019-02-28T09:46:42.062Z,72.15
2019-02-28T09:49:12.937Z,74.72
2019-02-28T09:51:38.300Z,77.17
2019-02-28T09:54:05.533Z,74.37
2019-02-28T09:56:32.758Z,77.53
2019-02-28T09:59:00.219Z,76.00
2019-02-28T10:01:28.993Z,87.67
2019-02-28T10:03:56.244Z,84.13
2019-02-28T10:06:23.487Z,86.90
2019-02-28T10:08:50.691Z,87.00
2019-02-28T10:11:17.898Z,89.47
2019-02-28T10:13:45.103Z,84.67
2019-02-28T10:16:13.666Z,79.45
2019-02-28T10:18:41.439Z,82.45
2019-02-28T10:21:08.626Z,84.97
2019-02-28T10:23:35.827Z,79.75
2019-02-28T10:26:03.032Z,83.62
2019-02-28T10:28:30.229Z,83.15
2019-02-28T10:30:57.483Z,75.47
2019-02-28T10:33:24.691Z,78.50
2019-02-28T10:35:51.889Z,76.17
2019-02-28T10:38:19.164Z,75.47
2019-02-28T10:40:46.363Z,73.55
2019-02-28T10:43:15.627Z,77.78
2019-02-28T10:45:42.895Z,75.57
2019-02-28T10:48:10.231Z,75.45
2019-02-28T10:50:37.905Z,79.03
2019-02-28T10:53:06.114Z,77.70
2019-02-28T10:55:33.682Z,82.15
2019-02-28T10:58:00.900Z,82.10
2019-02-28T11:00:32.750Z,78.65
2019-02-28T11:03:00.391Z,83.07
2019-02-28T11:05:28.822Z,81.02
2019-02-28T11:07:56.014Z,80.95
2019-02-28T11:10:24.864Z,79.77
2019-02-28T11:12:54.297Z,81.53
2019-02-28T11:15:22.596Z,81.90
2019-02-28T11:17:49.790Z,82.30
2019-02-28T11:20:22.182Z,78.35
2019-02-28T11:22:46.113Z,84.30
2019-02-28T11:25:14.288Z,79.15
2019-02-28T11:27:41.498Z,79.27
2019-02-28T11:30:10.850Z,79.20
2019-02-28T11:32:38.099Z,83.03
2019-02-28T11:35:06.184Z,79.45
2019-02-28T11:37:33.374Z,80.38
2019-02-28T11:40:00.604Z,82.92
2019-02-28T11:42:28.892Z,79.92
2019-02-28T11:44:56.430Z,74.92
2019-02-28T11:47:23.648Z,75.05
2019-02-28T11:49:50.857Z,75.80
2019-02-28T11:52:18.082Z,72.50
2019-02-28T11:54:45.855Z,66.77
2019-02-28T11:57:13.047Z,64.85
2019-02-28T11:59:40.264Z,65.65
2019-02-28T12:02:07.439Z,63.15
2019-02-28T12:04:37.489Z,62.08
2019-02-28T12:07:03.597Z,63.65
2019-02-28T12:09:30.779Z,58.45
2019-02-28T12:11:57.970Z,57.90
2019-02-28T12:14:26.340Z,58.00
2019-02-28T12:16:54.105Z,56.35
2019-02-28T12:19:21.390Z,58.10
2019-02-28T12:21:48.650Z,57.17
2019-02-28T12:24:15.847Z,64.55
2019-02-28T12:26:43.073Z,70.22
2019-02-28T12:29:12.977Z,66.05
2019-02-28T12:31:39.224Z,69.85
2019-02-28T12:34:06.455Z,65.57
2019-02-28T12:36:33.731Z,65.65
2019-02-28T12:39:02.330Z,66.97
2019-02-28T12:41:30.111Z,62.88
2019-02-28T12:43:57.312Z,64.53
2019-02-28T12:46:24.516Z,61.70
2019-02-28T12:48:51.699Z,59.75
2019-02-28T12:51:18.923Z,61.73
2019-02-28T12:53:46.121Z,61.50
2019-02-28T12:56:14.236Z,57.20
2019-02-28T12:58:42.304Z,61.83
2019-02-28T13:01:09.511Z,59.70
2019-02-28T13:03:36.770Z,58.95
2019-02-28T13:06:03.997Z,59.50
2019-02-28T13:08:31.164Z,59.73
2019-02-28T13:11:03.131Z,65.03
2019-02-28T13:13:28.933Z,68.70
2019-02-28T13:15:56.346Z,68.90
2019-02-28T13:18:23.535Z,71.15
2019-02-28T13:20:50.723Z,70.32
2019-02-28T13:23:18.014Z,74.75
2019-02-28T13:25:45.377Z,72.97
2019-02-28T13:28:12.563Z,82.97
2019-02-28T13:30:40.558Z,83.52
2019-02-28T13:33:10.977Z,81.95
2019-02-28T13:35:44.758Z,82.85
2019-02-28T13:38:08.151Z,85.22
2019-02-28T13:40:35.444Z,79.22
2019-02-28T13:43:02.708Z,72.82
2019-02-28T13:45:29.973Z,70.87
2019-02-28T13:47:57.258Z,68.85
2019-02-28T13:50:26.920Z,57.48
2019-02-28T13:52:54.359Z,45.48
2019-02-28T13:55:21.609Z,37.75
2019-02-28T13:57:48.815Z,30.95
2019-02-28T14:00:29.680Z,32.78
2019-02-28T14:03:08.959Z,29.75
2019-02-28T14:05:38.762Z,28.45
2019-02-28T14:08:01.987Z,27.13
2019-02-28T14:10:29.784Z,26.40
2019-02-28T14:12:58.408Z,26.93
2019-02-28T14:15:26.855Z,25.20
2019-02-28T14:17:54.034Z,25.32
2019-02-28T14:20:21.251Z,24.18
2019-02-28T14:22:48.440Z,24.27
2019-02-28T14:25:15.707Z,23.80
2019-02-28T14:27:42.898Z,23.07
2019-02-28T14:30:16.350Z,21.73
2019-02-28T14:32:45.415Z,18.90
2019-02-28T14:35:14.974Z,18.27
2019-02-28T14:37:42.149Z,19.20
2019-02-28T14:40:11.084Z,17.17
2019-02-28T14:42:40.814Z,16.30
2019-02-28T14:45:11.799Z,13.98
2019-02-28T14:47:39.109Z,15.00
2019-02-28T14:50:07.897Z,14.75
2019-02-28T14:52:35.831Z,12.60
2019-02-28T14:55:05.534Z,10.98
2019-02-28T14:57:32.736Z,11.25
2019-02-28T15:00:00.087Z,11.48
2019-02-28T15:02:28.758Z,11.73
2019-02-28T15:04:56.083Z,11.50
2019-02-28T15:07:23.275Z,10.10
2019-02-28T15:09:50.488Z,10.40
2019-02-28T15:12:20.254Z,9.58
2019-02-28T15:14:46.591Z,9.70
2019-02-28T15:17:13.773Z,9.65
2019-02-28T15:19:40.978Z,10.15
2019-02-28T15:22:08.180Z,9.63
2019-02-28T15:24:35.359Z,9.60
2019-02-28T15:27:04.106Z,9.15
2019-02-28T15:29:31.483Z,9.13
2019-02-28T15:31:58.706Z,9.40
2019-02-28T15:34:25.880Z,9.20
2019-02-28T15:36:55.547Z,8.00
2019-02-28T15:39:23.536Z,7.92
2019-02-28T15:41:51.127Z,8.03
2019-02-28T15:44:18.454Z,6.80
2019-02-28T15:46:47.388Z,7.42
2019-02-28T15:49:14.585Z,7.05
2019-02-28T15:51:41.817Z,7.17
2019-02-28T15:54:09.179Z,6.70
2019-02-28T15:56:36.358Z,6.80
2019-02-28T15:59:03.567Z,6.35
2019-02-28T16:01:32.213Z,5.90
2019-02-28T16:03:59.737Z,6.25
2019-02-28T16:06:26.917Z,6.33
2019-02-28T16:08:54.188Z,6.22
2019-02-28T16:11:21.369Z,5.87
2019-02-28T16:13:48.557Z,5.90
2019-02-28T16:16:15.762Z,6.17
2019-02-28T16:18:44.084Z,5.95
2019-02-28T16:21:12.079Z,5.75
2019-02-28T16:23:39.285Z,5.83
2019-02-28T16:26:06.819Z,5.72
2019-02-28T16:28:34.002Z,5.28
2019-02-28T16:31:03.357Z,4.78
2019-02-28T16:33:30.204Z,4.62
2019-02-28T16:35:57.641Z,5.30
2019-02-28T16:38:24.870Z,5.62
2019-02-28T16:40:52.167Z,5.20
2019-02-28T16:43:20.911Z,6.10
2019-02-28T16:45:49.688Z,5.80
2019-02-28T16:48:16.978Z,5.20
2019-02-28T16:50:44.565Z,6.20
2019-02-28T16:53:16.269Z,5.65
2019-02-28T16:55:40.781Z,6.42
2019-02-28T16:58:08.039Z,7.17
2019-02-28T17:00:35.264Z,12.95
2019-02-28T17:03:04.110Z,6.62
2019-02-28T17:05:31.475Z,6.45
2019-02-28T17:07:58.690Z,6.10
2019-02-28T17:10:35.897Z,5.78
2019-02-28T17:13:10.548Z,6.12
2019-02-28T17:15:39.380Z,5.83
2019-02-28T17:18:08.227Z,6.03
2019-02-28T17:20:37.598Z,6.58
2019-02-28T17:23:04.553Z,7.22
2019-02-28T17:25:31.752Z,5.90
2019-02-28T17:28:00.554Z,6.80
2019-02-28T17:30:38.478Z,6.85
2019-02-28T17:33:08.719Z,5.25
2019-02-28T17:35:34.919Z,6.62
2019-02-28T17:38:02.158Z,6.47
2019-02-28T17:40:29.362Z,5.90
2019-02-28T17:42:56.567Z,5.70
2019-02-28T17:45:24.310Z,5.62
2019-02-28T17:48:12.697Z,5.67
2019-02-28T17:50:42.819Z,5.60
2019-02-28T17:53:12.470Z,6.55
2019-02-28T17:55:44.285Z,6.20
2019-02-28T17:58:32.655Z,5.45
2019-02-28T18:01:01.628Z,6.55
2019-02-28T18:03:30.435Z,6.20
2019-02-28T18:05:59.364Z,5.92
2019-02-28T18:08:44.825Z,5.90
2019-02-28T18:11:25.751Z,6.33
2019-02-28T18:14:10.822Z,6.67
2019-02-28T18:16:54.662Z,6.12
2019-02-28T18:19:22.504Z,5.97
2019-02-28T18:21:54.067Z,6.05
2019-02-28T18:24:27.591Z,6.25
2019-02-28T18:26:56.379Z,7.72
2019-02-28T18:29:40.367Z,6.45
2019-02-28T18:32:07.611Z,5.72
2019-02-28T18:34:35.548Z,6.15
2019-02-28T18:37:02.826Z,6.22
2019-02-28T18:39:30.153Z,5.70
2019-02-28T18:41:57.452Z,5.90
2019-02-28T18:44:24.824Z,6.10
2019-02-28T18:46:52.202Z,6.33
2019-02-28T18:49:19.522Z,6.40
2019-02-28T18:51:47.325Z,6.37
2019-02-28T18:54:14.676Z,5.65
2019-02-28T18:56:41.887Z,7.53
2019-02-28T18:59:09.066Z,6.87
2019-02-28T19:01:36.248Z,7.25
2019-02-28T19:04:03.465Z,7.58
2019-02-28T19:06:30.705Z,6.87
2019-02-28T19:08:57.888Z,8.28
2019-02-28T19:11:25.111Z,8.48
2019-02-28T19:13:52.308Z,8.80
2019-02-28T19:16:19.708Z,8.70
2019-02-28T19:18:46.887Z,8.80
2019-02-28T19:21:14.961Z,8.95
2019-02-28T19:23:42.462Z,9.23
2019-02-28T19:26:09.677Z,9.48
2019-02-28T19:28:36.997Z,9.85
2019-02-28T19:31:04.294Z,11.97
2019-02-28T19:33:31.575Z,9.85
2019-02-28T19:35:59.363Z,10.82
2019-02-28T19:38:26.555Z,11.10
2019-02-28T19:40:53.748Z,11.48
2019-02-28T19:43:20.972Z,13.05
2019-02-28T19:45:49.945Z,12.03
2019-02-28T19:48:17.175Z,13.18
2019-02-28T19:50:44.409Z,12.35
2019-02-28T19:53:11.699Z,12.70
2019-02-28T19:55:38.972Z,13.00
2019-02-28T19:58:06.161Z,13.22
2019-02-28T20:00:33.459Z,14.73
2019-02-28T20:03:00.659Z,14.13
2019-02-28T20:05:27.861Z,13.32
2019-02-28T20:07:55.257Z,13.32
2019-02-28T20:10:22.558Z,13.90
2019-02-28T20:12:50.059Z,16.05
2019-02-28T20:15:18.207Z,14.95
2019-02-28T20:17:45.473Z,15.45
2019-02-28T20:20:14.678Z,15.32
2019-02-28T20:22:41.913Z,15.23
2019-02-28T20:25:10.300Z,16.90
2019-02-28T20:27:37.593Z,15.65
2019-02-28T20:30:06.266Z,17.17
2019-02-28T20:32:34.962Z,18.23
2019-02-28T20:35:02.215Z,17.70
2019-02-28T20:37:29.395Z,19.85
2019-02-28T20:39:56.844Z,17.35
2019-02-28T20:42:24.024Z,18.00
2019-02-28T20:44:51.230Z,18.32
2019-02-28T20:47:18.420Z,16.50
2019-02-28T20:49:45.598Z,18.45
2019-02-28T20:52:12.798Z,18.55
2019-02-28T20:54:39.997Z,17.32
2019-02-28T20:57:07.340Z,17.85
2019-02-28T20:59:34.529Z,17.75
2019-02-28T21:02:01.723Z,17.90
2019-02-28T21:04:28.918Z,17.85
2019-02-28T21:06:56.115Z,18.00
2019-02-28T21:09:23.574Z,17.10
2019-02-28T21:11:50.867Z,18.27
2019-02-28T21:14:18.058Z,19.37
2019-02-28T21:16:45.264Z,18.10
2019-02-28T21:19:12.469Z,19.60
2019-02-28T21:21:39.795Z,19.27
2019-02-28T21:24:08.944Z,21.20
2019-02-28T21:26:36.204Z,20.35
2019-02-28T21:29:03.460Z,20.20
2019-02-28T21:31:30.729Z,19.95
2019-02-28T21:33:57.922Z,19.42
2019-02-28T21:36:25.127Z,19.02
2019-02-28T21:38:52.368Z,20.08
2019-02-28T21:41:19.625Z,18.98
2019-02-28T21:43:46.822Z,17.60
2019-02-28T21:46:14.132Z,19.37
2019-02-28T21:48:41.404Z,17.02
2019-02-28T21:51:08.834Z,18.12
2019-02-28T21:53:36.031Z,17.67
2019-02-28T21:56:03.276Z,18.98
2019-02-28T21:58:31.334Z,16.62
2019-02-28T22:00:58.567Z,17.50
2019-02-28T22:03:25.812Z,17.12
2019-02-28T22:05:54.009Z,17.70
2019-02-28T22:08:21.233Z,15.90
2019-02-28T22:10:48.456Z,15.43
2019-02-28T22:13:15.669Z,16.35
2019-02-28T22:15:42.861Z,16.65
2019-02-28T22:18:10.150Z,15.72
2019-02-28T22:20:37.367Z,17.40
2019-02-28T22:23:04.646Z,15.72
2019-02-28T22:25:31.901Z,17.70
2019-02-28T22:27:59.099Z,17.42
2019-02-28T22:30:43.253Z,16.93
2019-02-28T22:33:21.251Z,18.00
2019-02-28T22:35:50.081Z,16.23
2019-02-28T22:38:17.289Z,17.37
2019-02-28T22:40:44.469Z,14.75
2019-02-28T22:43:11.680Z,15.20
2019-02-28T22:45:38.849Z,17.85
2019-02-28T22:48:06.024Z,15.68
2019-02-28T22:50:33.223Z,15.83
2019-02-28T22:53:00.415Z,17.30
2019-02-28T22:55:27.603Z,15.98
2019-02-28T22:57:54.810Z,18.12
2019-02-28T23:00:52.103Z,16.42
2019-02-28T23:03:19.755Z,17.98
2019-02-28T23:05:46.958Z,19.12
2019-02-28T23:08:14.239Z,19.00
2019-02-28T23:10:41.430Z,18.77
2019-02-28T23:13:08.652Z,20.62
2019-02-28T23:15:35.851Z,19.65
2019-02-28T23:18:03.027Z,20.12
2019-02-28T23:20:30.240Z,19.82
2019-02-28T23:22:57.407Z,19.10
2019-02-28T23:25:24.609Z,23.18
2019-02-28T23:27:53.429Z,22.27
2019-02-28T23:30:28.250Z,25.02
2019-02-28T23:32:57.306Z,23.52
2019-02-28T23:35:26.370Z,26.00
2019-02-28T23:37:53.668Z,24.63
2019-02-28T23:40:20.839Z,26.90
2019-02-28T23:42:48.070Z,24.80
2019-02-28T23:45:15.280Z,26.10
2019-02-28T23:47:42.471Z,27.75
2019-02-28T23:50:09.639Z,28.30
2019-02-28T23:52:36.839Z,30.60
2019-02-28T23:55:05.494Z,33.78
2019-02-28T23:57:32.703Z,30.60
